sensor_id;sensor_type;location;lat;lon;timestamp;P1;durP1;ratioP1;P2;durP2;ratioP2
23678;SDS011;12016;51.668;6.874;2023-03-03T00:01:12;26.77;;;20.08;;
23678;SDS011;12016;51.668;6.874;2023-03-03T00:07:16;26.70;;;20.08;;
23678;SDS011;12016;51.668;6.874;2023-03-03T00:13:24;26.33;;;19.80;;
23678;SDS011;12016;51.668;6.874;2023-03-03T00:19:28;27.67;;;21.03;;
23678;SDS011;12016;51.668;6.874;2023-03-03T00:25:40;24.83;;;19.47;;
23678;SDS011;12016;51.668;6.874;2023-03-03T00:31:45;28.90;;;21.75;;
23678;SDS011;12016;51.668;6.874;2023-03-03T00:37:47;31.00;;;22.40;;
23678;SDS011;12016;51.668;6.874;2023-03-03T00:43:50;28.53;;;21.27;;
23678;SDS011;12016;51.668;6.874;2023-03-03T00:50:13;29.13;;;21.15;;
23678;SDS011;12016;51.668;6.874;2023-03-03T00:56:34;28.40;;;20.33;;
23678;SDS011;12016;51.668;6.874;2023-03-03T01:02:36;26.23;;;19.77;;
23678;SDS011;12016;51.668;6.874;2023-03-03T01:08:38;27.77;;;19.95;;
23678;SDS011;12016;51.668;6.874;2023-03-03T01:14:41;27.13;;;19.43;;
23678;SDS011;12016;51.668;6.874;2023-03-03T01:20:42;26.33;;;18.97;;
23678;SDS011;12016;51.668;6.874;2023-03-03T01:26:45;25.33;;;19.00;;
23678;SDS011;12016;51.668;6.874;2023-03-03T01:32:47;25.37;;;18.60;;
23678;SDS011;12016;51.668;6.874;2023-03-03T01:38:49;25.98;;;19.40;;
23678;SDS011;12016;51.668;6.874;2023-03-03T01:45:08;29.83;;;20.50;;
23678;SDS011;12016;51.668;6.874;2023-03-03T01:57:22;28.75;;;20.50;;
23678;SDS011;12016;51.668;6.874;2023-03-03T02:03:30;27.13;;;20.20;;
23678;SDS011;12016;51.668;6.874;2023-03-03T02:09:44;27.83;;;20.08;;
23678;SDS011;12016;51.668;6.874;2023-03-03T02:15:55;29.70;;;21.57;;
23678;SDS011;12016;51.668;6.874;2023-03-03T02:21:58;29.67;;;21.60;;
23678;SDS011;12016;51.668;6.874;2023-03-03T02:28:03;29.47;;;21.07;;
23678;SDS011;12016;51.668;6.874;2023-03-03T02:34:05;28.80;;;20.90;;
23678;SDS011;12016;51.668;6.874;2023-03-03T02:40:07;30.67;;;21.48;;
23678;SDS011;12016;51.668;6.874;2023-03-03T02:46:11;32.67;;;23.07;;
23678;SDS011;12016;51.668;6.874;2023-03-03T02:52:13;30.87;;;22.50;;
23678;SDS011;12016;51.668;6.874;2023-03-03T02:58:19;30.83;;;22.58;;
23678;SDS011;12016;51.668;6.874;2023-03-03T03:04:22;33.08;;;24.40;;
23678;SDS011;12016;51.668;6.874;2023-03-03T03:10:27;34.20;;;24.10;;
23678;SDS011;12016;51.668;6.874;2023-03-03T03:16:29;34.00;;;25.17;;
23678;SDS011;12016;51.668;6.874;2023-03-03T03:22:32;35.55;;;24.80;;
23678;SDS011;12016;51.668;6.874;2023-03-03T03:28:35;35.83;;;25.30;;
23678;SDS011;12016;51.668;6.874;2023-03-03T03:34:38;38.33;;;26.23;;
23678;SDS011;12016;51.668;6.874;2023-03-03T03:40:41;39.63;;;26.23;;
23678;SDS011;12016;51.668;6.874;2023-03-03T03:46:44;36.38;;;25.63;;
23678;SDS011;12016;51.668;6.874;2023-03-03T03:52:46;39.47;;;26.50;;
23678;SDS011;12016;51.668;6.874;2023-03-03T03:58:48;38.88;;;26.33;;
23678;SDS011;12016;51.668;6.874;2023-03-03T04:04:51;37.63;;;25.50;;
23678;SDS011;12016;51.668;6.874;2023-03-03T04:10:52;37.40;;;24.37;;
23678;SDS011;12016;51.668;6.874;2023-03-03T04:16:55;37.35;;;25.33;;
23678;SDS011;12016;51.668;6.874;2023-03-03T04:22:58;36.72;;;24.13;;
23678;SDS011;12016;51.668;6.874;2023-03-03T04:29:00;36.97;;;24.30;;
23678;SDS011;12016;51.668;6.874;2023-03-03T04:35:03;36.83;;;24.37;;
23678;SDS011;12016;51.668;6.874;2023-03-03T04:41:12;35.97;;;23.98;;
23678;SDS011;12016;51.668;6.874;2023-03-03T04:47:14;37.13;;;24.13;;
23678;SDS011;12016;51.668;6.874;2023-03-03T04:53:16;37.53;;;24.33;;
23678;SDS011;12016;51.668;6.874;2023-03-03T04:59:18;36.97;;;24.35;;
23678;SDS011;12016;51.668;6.874;2023-03-03T05:05:20;35.50;;;23.75;;
23678;SDS011;12016;51.668;6.874;2023-03-03T05:11:22;36.92;;;23.65;;
23678;SDS011;12016;51.668;6.874;2023-03-03T05:17:23;35.78;;;23.38;;
23678;SDS011;12016;51.668;6.874;2023-03-03T05:23:25;34.00;;;22.27;;
23678;SDS011;12016;51.668;6.874;2023-03-03T05:29:28;34.38;;;22.75;;
23678;SDS011;12016;51.668;6.874;2023-03-03T05:35:33;32.00;;;21.93;;
23678;SDS011;12016;51.668;6.874;2023-03-03T05:41:35;34.23;;;22.13;;
23678;SDS011;12016;51.668;6.874;2023-03-03T05:47:37;32.95;;;21.77;;
23678;SDS011;12016;51.668;6.874;2023-03-03T05:53:39;33.42;;;21.73;;
23678;SDS011;12016;51.668;6.874;2023-03-03T05:59:41;33.00;;;21.53;;
23678;SDS011;12016;51.668;6.874;2023-03-03T06:05:42;32.97;;;21.58;;
23678;SDS011;12016;51.668;6.874;2023-03-03T06:11:44;33.00;;;21.73;;
23678;SDS011;12016;51.668;6.874;2023-03-03T06:17:46;31.00;;;20.30;;
23678;SDS011;12016;51.668;6.874;2023-03-03T06:23:48;33.33;;;21.08;;
23678;SDS011;12016;51.668;6.874;2023-03-03T06:29:50;32.00;;;20.27;;
23678;SDS011;12016;51.668;6.874;2023-03-03T06:35:52;31.57;;;20.73;;
23678;SDS011;12016;51.668;6.874;2023-03-03T06:41:55;33.83;;;21.00;;
23678;SDS011;12016;51.668;6.874;2023-03-03T06:47:57;31.73;;;20.60;;
23678;SDS011;12016;51.668;6.874;2023-03-03T06:54:05;31.17;;;19.48;;
23678;SDS011;12016;51.668;6.874;2023-03-03T07:06:22;29.88;;;19.38;;
23678;SDS011;12016;51.668;6.874;2023-03-03T07:12:28;29.60;;;19.02;;
23678;SDS011;12016;51.668;6.874;2023-03-03T07:18:36;28.93;;;19.13;;
23678;SDS011;12016;51.668;6.874;2023-03-03T07:24:47;27.38;;;17.20;;
23678;SDS011;12016;51.668;6.874;2023-03-03T07:30:53;25.70;;;16.97;;
23678;SDS011;12016;51.668;6.874;2023-03-03T07:36:58;26.35;;;16.98;;
23678;SDS011;12016;51.668;6.874;2023-03-03T07:43:16;28.08;;;17.55;;
23678;SDS011;12016;51.668;6.874;2023-03-03T07:49:33;28.98;;;17.48;;
23678;SDS011;12016;51.668;6.874;2023-03-03T07:55:38;27.42;;;16.85;;
23678;SDS011;12016;51.668;6.874;2023-03-03T08:01:42;28.90;;;16.92;;
23678;SDS011;12016;51.668;6.874;2023-03-03T08:07:48;25.48;;;15.45;;
23678;SDS011;12016;51.668;6.874;2023-03-03T08:13:51;26.98;;;16.42;;
23678;SDS011;12016;51.668;6.874;2023-03-03T08:19:53;26.67;;;16.48;;
23678;SDS011;12016;51.668;6.874;2023-03-03T08:25:55;26.00;;;16.60;;
23678;SDS011;12016;51.668;6.874;2023-03-03T08:31:57;28.02;;;16.98;;
23678;SDS011;12016;51.668;6.874;2023-03-03T08:37:59;28.23;;;16.27;;
23678;SDS011;12016;51.668;6.874;2023-03-03T08:44:01;28.23;;;16.73;;
23678;SDS011;12016;51.668;6.874;2023-03-03T08:50:03;25.73;;;15.32;;
23678;SDS011;12016;51.668;6.874;2023-03-03T08:56:06;25.23;;;15.27;;
23678;SDS011;12016;51.668;6.874;2023-03-03T09:02:08;28.45;;;15.25;;
23678;SDS011;12016;51.668;6.874;2023-03-03T09:08:10;27.13;;;15.80;;
23678;SDS011;12016;51.668;6.874;2023-03-03T09:14:13;26.80;;;14.48;;
23678;SDS011;12016;51.668;6.874;2023-03-03T09:20:20;24.80;;;14.23;;
23678;SDS011;12016;51.668;6.874;2023-03-03T09:26:43;25.20;;;13.90;;
23678;SDS011;12016;51.668;6.874;2023-03-03T09:32:47;20.20;;;12.60;;
23678;SDS011;12016;51.668;6.874;2023-03-03T09:38:49;21.92;;;12.93;;
23678;SDS011;12016;51.668;6.874;2023-03-03T09:51:12;23.52;;;14.02;;
23678;SDS011;12016;51.668;6.874;2023-03-03T09:57:16;20.73;;;12.63;;
23678;SDS011;12016;51.668;6.874;2023-03-03T10:16:24;20.63;;;13.07;;
23678;SDS011;12016;51.668;6.874;2023-03-03T10:22:51;18.23;;;12.13;;
23678;SDS011;12016;51.668;6.874;2023-03-03T10:41:47;21.35;;;13.27;;
23678;SDS011;12016;51.668;6.874;2023-03-03T10:48:05;19.15;;;12.38;;
23678;SDS011;12016;51.668;6.874;2023-03-03T11:01:48;20.88;;;13.68;;
23678;SDS011;12016;51.668;6.874;2023-03-03T11:07:41;24.50;;;14.98;;
23678;SDS011;12016;51.668;6.874;2023-03-03T11:13:48;24.88;;;15.02;;
23678;SDS011;12016;51.668;6.874;2023-03-03T11:39:04;24.20;;;14.80;;
23678;SDS011;12016;51.668;6.874;2023-03-03T11:45:12;25.10;;;14.45;;
23678;SDS011;12016;51.668;6.874;2023-03-03T11:57:42;18.95;;;13.43;;
23678;SDS011;12016;51.668;6.874;2023-03-03T12:03:56;16.98;;;12.23;;
23678;SDS011;12016;51.668;6.874;2023-03-03T12:16:37;12.85;;;10.20;;
23678;SDS011;12016;51.668;6.874;2023-03-03T12:30:11;14.10;;;10.47;;
23678;SDS011;12016;51.668;6.874;2023-03-03T12:36:22;13.50;;;10.30;;
23678;SDS011;12016;51.668;6.874;2023-03-03T12:42:42;13.30;;;10.23;;
23678;SDS011;12016;51.668;6.874;2023-03-03T12:48:48;13.82;;;10.23;;
23678;SDS011;12016;51.668;6.874;2023-03-03T12:54:59;14.38;;;10.70;;
23678;SDS011;12016;51.668;6.874;2023-03-03T13:20:07;12.57;;;9.70;;
23678;SDS011;12016;51.668;6.874;2023-03-03T13:26:21;12.80;;;10.00;;
23678;SDS011;12016;51.668;6.874;2023-03-03T13:32:49;12.93;;;9.60;;
23678;SDS011;12016;51.668;6.874;2023-03-03T13:39:20;11.83;;;9.63;;
23678;SDS011;12016;51.668;6.874;2023-03-03T14:04:04;13.20;;;10.52;;
23678;SDS011;12016;51.668;6.874;2023-03-03T14:10:27;14.90;;;10.60;;
23678;SDS011;12016;51.668;6.874;2023-03-03T14:16:46;14.27;;;10.55;;
23678;SDS011;12016;51.668;6.874;2023-03-03T14:22:54;14.30;;;10.65;;
23678;SDS011;12016;51.668;6.874;2023-03-03T14:29:20;12.65;;;9.82;;
23678;SDS011;12016;51.668;6.874;2023-03-03T14:35:29;13.55;;;10.65;;
23678;SDS011;12016;51.668;6.874;2023-03-03T14:41:38;14.37;;;10.70;;
23678;SDS011;12016;51.668;6.874;2023-03-03T14:47:43;13.32;;;10.23;;
23678;SDS011;12016;51.668;6.874;2023-03-03T14:53:46;11.90;;;9.75;;
23678;SDS011;12016;51.668;6.874;2023-03-03T15:06:01;12.05;;;10.15;;
23678;SDS011;12016;51.668;6.874;2023-03-03T15:12:57;11.85;;;10.20;;
23678;SDS011;12016;51.668;6.874;2023-03-03T15:18:33;12.65;;;10.50;;
23678;SDS011;12016;51.668;6.874;2023-03-03T15:38:33;10.77;;;8.90;;
23678;SDS011;12016;51.668;6.874;2023-03-03T15:51:05;10.43;;;9.13;;
23678;SDS011;12016;51.668;6.874;2023-03-03T15:57:34;13.93;;;12.27;;
23678;SDS011;12016;51.668;6.874;2023-03-03T16:03:45;11.77;;;9.98;;
23678;SDS011;12016;51.668;6.874;2023-03-03T16:09:58;12.23;;;10.40;;
23678;SDS011;12016;51.668;6.874;2023-03-03T16:22:47;13.43;;;11.07;;
23678;SDS011;12016;51.668;6.874;2023-03-03T16:29:16;12.00;;;10.32;;
23678;SDS011;12016;51.668;6.874;2023-03-03T16:36:07;13.27;;;10.50;;
23678;SDS011;12016;51.668;6.874;2023-03-03T16:42:25;12.33;;;10.10;;
23678;SDS011;12016;51.668;6.874;2023-03-03T16:48:39;14.57;;;10.23;;
23678;SDS011;12016;51.668;6.874;2023-03-03T17:20:48;13.88;;;11.02;;
23678;SDS011;12016;51.668;6.874;2023-03-03T17:26:56;15.45;;;11.30;;
23678;SDS011;12016;51.668;6.874;2023-03-03T17:46:28;12.25;;;9.10;;
23678;SDS011;12016;51.668;6.874;2023-03-03T18:05:42;7.28;;;5.95;;
23678;SDS011;12016;51.668;6.874;2023-03-03T18:11:58;5.40;;;4.15;;
23678;SDS011;12016;51.668;6.874;2023-03-03T18:30:57;5.43;;;3.60;;
23678;SDS011;12016;51.668;6.874;2023-03-03T18:55:58;4.70;;;3.65;;
23678;SDS011;12016;51.668;6.874;2023-03-03T19:08:20;4.88;;;3.60;;
23678;SDS011;12016;51.668;6.874;2023-03-03T19:14:30;6.97;;;3.80;;
23678;SDS011;12016;51.668;6.874;2023-03-03T19:20:40;5.32;;;4.05;;
23678;SDS011;12016;51.668;6.874;2023-03-03T20:24:49;7.43;;;4.18;;
23678;SDS011;12016;51.668;6.874;2023-03-03T20:37:32;6.07;;;4.18;;
23678;SDS011;12016;51.668;6.874;2023-03-03T20:50:03;7.15;;;4.35;;
23678;SDS011;12016;51.668;6.874;2023-03-03T20:56:19;7.32;;;4.28;;
23678;SDS011;12016;51.668;6.874;2023-03-03T21:02:30;5.40;;;4.22;;
23678;SDS011;12016;51.668;6.874;2023-03-03T21:08:42;9.10;;;5.25;;
23678;SDS011;12016;51.668;6.874;2023-03-03T21:14:59;9.00;;;5.00;;
23678;SDS011;12016;51.668;6.874;2023-03-03T21:21:03;11.32;;;5.72;;
23678;SDS011;12016;51.668;6.874;2023-03-03T21:27:12;11.48;;;5.43;;
23678;SDS011;12016;51.668;6.874;2023-03-03T21:33:38;8.10;;;4.85;;
23678;SDS011;12016;51.668;6.874;2023-03-03T21:39:46;7.75;;;4.20;;
23678;SDS011;12016;51.668;6.874;2023-03-03T21:45:48;8.38;;;4.60;;
23678;SDS011;12016;51.668;6.874;2023-03-03T21:51:50;15.00;;;5.30;;
23678;SDS011;12016;51.668;6.874;2023-03-03T21:57:52;19.77;;;5.85;;
23678;SDS011;12016;51.668;6.874;2023-03-03T22:03:53;7.50;;;4.55;;
23678;SDS011;12016;51.668;6.874;2023-03-03T22:09:55;11.45;;;4.85;;
23678;SDS011;12016;51.668;6.874;2023-03-03T22:15:57;16.17;;;5.90;;
23678;SDS011;12016;51.668;6.874;2023-03-03T22:22:01;15.45;;;5.22;;
23678;SDS011;12016;51.668;6.874;2023-03-03T22:28:02;15.65;;;5.97;;
23678;SDS011;12016;51.668;6.874;2023-03-03T22:34:04;21.35;;;7.60;;
23678;SDS011;12016;51.668;6.874;2023-03-03T22:40:06;12.02;;;4.68;;
23678;SDS011;12016;51.668;6.874;2023-03-03T22:46:09;11.75;;;4.30;;
23678;SDS011;12016;51.668;6.874;2023-03-03T22:52:11;10.32;;;3.72;;
23678;SDS011;12016;51.668;6.874;2023-03-03T22:58:13;11.20;;;3.85;;
23678;SDS011;12016;51.668;6.874;2023-03-03T23:04:15;11.73;;;4.18;;
23678;SDS011;12016;51.668;6.874;2023-03-03T23:10:18;8.65;;;3.80;;
23678;SDS011;12016;51.668;6.874;2023-03-03T23:16:21;10.50;;;3.83;;
23678;SDS011;12016;51.668;6.874;2023-03-03T23:22:22;10.07;;;4.00;;
23678;SDS011;12016;51.668;6.874;2023-03-03T23:28:24;10.68;;;3.70;;
23678;SDS011;12016;51.668;6.874;2023-03-03T23:34:26;10.20;;;3.85;;
23678;SDS011;12016;51.668;6.874;2023-03-03T23:40:28;10.02;;;3.80;;
23678;SDS011;12016;51.668;6.874;2023-03-03T23:46:30;10.98;;;3.83;;
23678;SDS011;12016;51.668;6.874;2023-03-03T23:52:35;10.60;;;4.00;;
23678;SDS011;12016;51.668;6.874;2023-03-03T23:58:40;10.07;;;3.97;;
